Time;durP1;ratioP1;P1;durP2;ratioP2;P2;SDS_P1;SDS_P2;PMS_P1;PMS_P2;Temp;Humidity;BMP_temperature;BMP_pressure;BME280_temperature;BME280_humidity;BME280_pressure;Samples;Min_cycle;Max_cycle;Signal;HPM_P1;HPM_P2
2022/06/03 00:00:50;;;;;;;;;;;18.00;66.40;;;;;;5075086;28;20070;-77
2022/06/03 00:03:59;;;;;;;2.30;1.50;;;17.90;66.40;;;;;;5066032;28;19905;-77
2022/06/03 00:06:39;;;;;;;2.50;1.10;;;17.90;66.60;;;;;;5074540;28;20025;-77
2022/06/03 00:09:27;;;;;;;1.35;1.08;;;17.90;66.80;;;;;;5074083;28;20020;-77
2022/06/03 00:11:56;;;;;;;1.33;0.80;;;17.90;67.20;;;;;;5074578;28;20032;-77
2022/06/03 00:14:46;;;;;;;2.80;1.00;;;17.90;67.30;;;;;;5074463;28;20047;-77
2022/06/03 00:17:21;;;;;;;4.55;2.53;;;17.90;67.60;;;;;;5074449;28;20021;-77
2022/06/03 00:19:58;;;;;;;4.28;2.10;;;17.80;67.90;;;;;;5074390;28;20094;-77
2022/06/03 00:22:27;;;;;;;4.45;1.60;;;17.80;67.80;;;;;;5074200;28;20472;-77
2022/06/03 00:25:11;;;;;;;2.80;1.40;;;17.90;67.80;;;;;;5074317;28;20034;-77
2022/06/03 00:28:14;;;;;;;3.75;1.10;;;17.80;67.70;;;;;;5074358;28;20091;-77
2022/06/03 00:30:53;;;;;;;;;;;17.90;67.70;;;;;;5074355;28;20028;-77
2022/06/03 00:33:25;;;;;;;1.38;1.10;;;17.90;67.90;;;;;;5073760;28;19953;-77
2022/06/03 00:35:58;;;;;;;2.88;1.13;;;17.80;68.00;;;;;;5074167;28;20491;-77
2022/06/03 00:38:45;;;;;;;2.65;1.17;;;17.80;68.20;;;;;;5073531;28;20024;-77
2022/06/03 00:41:44;;;;;;;3.13;1.20;;;17.80;68.10;;;;;;5074011;28;20047;-77
2022/06/03 00:44:46;;;;;;;1.42;0.82;;;17.80;68.20;;;;;;5073689;28;20471;-77
2022/06/03 00:47:24;;;;;;;1.42;0.95;;;17.80;68.20;;;;;;5073333;28;20036;-77
2022/06/03 00:50:05;;;;;;;1.20;0.80;;;17.80;68.20;;;;;;5074023;28;20043;-77
2022/06/03 00:52:51;;;;;;;1.73;1.13;;;17.90;68.20;;;;;;5073591;28;20036;-77
2022/06/03 00:55:25;;;;;;;2.60;1.58;;;17.80;68.20;;;;;;5073699;28;20024;-77
2022/06/03 00:57:55;;;;;;;3.67;1.10;;;17.70;68.70;;;;;;5073773;28;20086;-77
2022/06/03 01:00:24;;;;;;;2.40;0.85;;;17.70;68.90;;;;;;5073477;28;20543;-77
2022/06/03 01:02:54;;;;;;;1.45;0.95;;;17.60;68.90;;;;;;5073576;28;20031;-77
2022/06/03 01:05:35;;;;;;;3.78;1.48;;;17.70;68.90;;;;;;5073414;28;20024;-77
2022/06/03 01:08:10;;;;;;;1.40;0.98;;;17.70;68.90;;;;;;5073457;28;20401;-77
2022/06/03 01:10:59;;;;;;;1.55;1.15;;;17.60;69.00;;;;;;5073497;28;20032;-77
2022/06/03 01:13:45;;;;;;;2.33;1.30;;;17.70;69.00;;;;;;5073269;28;20055;-77
2022/06/03 01:16:31;;;;;;;2.90;1.05;;;17.70;69.00;;;;;;5073295;28;20029;-77
2022/06/03 01:18:57;;;;;;;2.10;1.20;;;17.70;69.10;;;;;;5073484;28;20070;-77
2022/06/03 01:21:47;;;;;;;1.52;0.90;;;17.70;69.20;;;;;;5072262;28;20047;-77
2022/06/03 01:24:24;;;;;;;1.13;0.93;;;17.70;69.20;;;;;;5073282;28;20073;-77
2022/06/03 01:27:13;;;;;;;1.30;1.10;;;17.60;69.20;;;;;;5073400;28;20024;-77
2022/06/03 01:30:00;;;;;;;2.28;1.20;;;17.60;69.30;;;;;;5065577;28;20074;-77
2022/06/03 01:32:39;;;;;;;2.50;1.40;;;17.60;69.50;;;;;;5073032;28;20365;-77
2022/06/03 01:35:41;;;;;;;2.75;1.30;;;17.50;69.90;;;;;;5072865;28;20020;-77
2022/06/03 01:38:42;;;;;;;1.30;1.20;;;17.40;70.10;;;;;;5073354;28;20025;-77
2022/06/03 01:41:13;;;;;;;3.10;1.65;;;17.20;70.50;;;;;;5065529;28;20028;-77
2022/06/03 01:43:42;;;;;;;2.25;1.00;;;17.10;70.90;;;;;;5073397;28;20029;-77
2022/06/03 01:46:29;;;;;;;3.95;1.63;;;17.10;71.10;;;;;;5073014;28;20023;-76
2022/06/03 01:48:57;;;;;;;3.15;1.40;;;17.10;71.10;;;;;;5072953;28;20033;-77
2022/06/03 01:51:34;;;;;;;3.40;1.88;;;17.10;71.10;;;;;;5073079;28;20077;-77
2022/06/03 01:54:33;;;;;;;3.97;1.50;;;17.10;71.50;;;;;;5072921;28;20502;-77
2022/06/03 01:57:25;;;;;;;2.83;1.30;;;16.90;71.90;;;;;;5072911;28;20499;-77
2022/06/03 02:00:08;;;;;;;2.00;1.52;;;16.80;72.20;;;;;;5072901;28;20026;-77
2022/06/03 02:02:59;;;;;;;2.88;1.42;;;16.80;72.60;;;;;;5072920;28;20349;-77
2022/06/03 02:05:33;;;;;;;4.95;1.58;;;16.80;72.60;;;;;;5073162;28;20049;-77
2022/06/03 02:08:23;;;;;;;2.75;1.70;;;16.80;72.50;;;;;;5072692;28;20377;-75
2022/06/03 02:11:26;;;;;;;4.45;1.80;;;16.80;72.80;;;;;;5072634;28;20495;-75
2022/06/03 02:13:54;;;;;;;2.45;1.70;;;16.60;73.10;;;;;;5072483;28;20059;-75
2022/06/03 02:16:44;;;;;;;2.00;1.38;;;16.70;73.10;;;;;;5072723;28;20028;-76
2022/06/03 02:19:30;;;;;;;2.55;1.75;;;16.70;72.90;;;;;;5072874;28;20029;-75
2022/06/03 02:22:18;;;;;;;2.38;1.50;;;16.80;72.70;;;;;;5072800;28;20028;-75
2022/06/03 02:25:11;;;;;;;4.90;1.63;;;16.80;73.40;;;;;;5072809;28;20021;-76
2022/06/03 02:27:47;;;;;;;;;;;16.70;72.70;;;;;;5073271;28;20089;-75
2022/06/03 02:30:51;;;;;;;2.85;1.30;;;16.70;72.80;;;;;;5072726;28;19953;-75
2022/06/03 02:33:28;;;;;;;1.50;1.15;;;16.80;72.70;;;;;;5074878;28;20033;-76
2022/06/03 02:36:31;;;;;;;2.25;1.30;;;16.90;72.40;;;;;;5076254;28;20048;-76
2022/06/03 02:39:11;;;;;;;2.63;1.13;;;16.90;72.30;;;;;;5076120;28;20549;-76
2022/06/03 02:41:55;;;;;;;2.92;1.20;;;17.00;72.30;;;;;;5076050;28;20361;-75
2022/06/03 02:44:44;;;;;;;2.90;1.15;;;17.00;72.30;;;;;;5075744;28;20038;-76
2022/06/03 02:48:01;;;;;;;3.67;2.00;;;17.00;72.20;;;;;;5075700;28;20051;-76
2022/06/03 02:50:27;;;;;;;2.95;1.75;;;16.90;72.40;;;;;;5052764;28;20111;-76
2022/06/03 02:53:20;;;;;;;3.55;2.08;;;16.80;72.80;;;;;;5075799;28;20175;-76
2022/06/03 02:56:15;;;;;;;2.83;1.48;;;16.70;73.20;;;;;;5075822;28;20488;-76
2022/06/03 02:58:43;;;;;;;2.30;1.10;;;16.70;73.30;;;;;;5075158;28;20041;-76
2022/06/03 03:01:30;;;;;;;4.32;1.65;;;16.70;73.30;;;;;;5076012;28;20021;-76
2022/06/03 03:04:19;;;;;;;1.95;1.48;;;16.80;73.10;;;;;;5075720;28;20104;-76
2022/06/03 03:07:03;;;;;;;2.35;1.13;;;16.90;72.90;;;;;;5075956;28;20028;-76
2022/06/03 03:09:39;;;;;;;2.42;1.40;;;16.90;72.80;;;;;;5075606;28;20026;-76
2022/06/03 03:12:22;;;;;;;4.43;2.00;;;16.90;72.80;;;;;;5075790;28;20028;-76
2022/06/03 03:15:00;;;;;;;3.33;1.50;;;16.90;72.80;;;;;;5075722;28;20028;-75
2022/06/03 03:17:25;;;;;;;4.63;1.48;;;16.80;72.90;;;;;;5075684;28;20025;-75
2022/06/03 03:20:12;;;;;;;2.15;1.38;;;16.80;73.00;;;;;;5075187;28;20066;-76
2022/06/03 03:23:01;;;;;;;2.33;1.40;;;16.80;73.00;;;;;;5075519;28;20031;-76
2022/06/03 03:25:51;;;;;;;2.15;1.20;;;16.80;72.90;;;;;;5075306;28;20536;-76
2022/06/03 03:28:34;;;;;;;4.93;1.80;;;16.80;72.80;;;;;;5075538;28;20036;-76
2022/06/03 03:31:32;;;;;;;3.58;1.85;;;16.90;72.80;;;;;;5075370;28;20028;-75
2022/06/03 03:34:16;;;;;;;2.78;1.27;;;16.90;72.70;;;;;;5054143;28;20082;-76
2022/06/03 03:37:02;;;;;;;2.75;1.85;;;16.80;72.90;;;;;;5075415;28;20120;-76
2022/06/03 03:39:41;;;;;;;2.42;1.77;;;16.70;73.30;;;;;;5075285;28;20053;-76
2022/06/03 03:42:37;;;;;;;2.08;1.42;;;16.50;73.70;;;;;;5075346;28;20031;-75
2022/06/03 03:45:59;;;;;;;3.40;1.80;;;16.50;73.80;;;;;;5074040;28;20056;-75
2022/06/03 03:49:01;;;;;;;3.92;2.10;;;16.40;73.80;;;;;;5032466;28;20050;-75
2022/06/03 03:51:39;;;;;;;3.13;1.77;;;16.40;74.00;;;;;;5032788;28;20033;-75
2022/06/03 03:54:29;;;;;;;2.40;1.85;;;16.30;74.20;;;;;;5071277;28;20043;-75
2022/06/03 03:57:16;;;;;;;3.47;1.73;;;16.30;74.30;;;;;;5074915;28;20383;-75
2022/06/03 03:59:41;;;;;;;2.22;1.98;;;16.30;74.30;;;;;;5074483;28;20032;-76
2022/06/03 04:02:10;;;;;;;4.03;2.25;;;16.30;74.20;;;;;;5074441;28;20023;-76
2022/06/03 04:04:47;;;;;;;3.45;2.22;;;16.30;74.50;;;;;;5074552;28;20028;-76
2022/06/03 04:07:52;;;;;;;4.53;2.30;;;16.10;74.80;;;;;;5074782;28;20032;-75
2022/06/03 04:10:20;;;;;;;3.90;2.13;;;16.00;75.30;;;;;;5042887;28;20032;-77
2022/06/03 04:13:27;;;;;;;2.65;1.88;;;16.00;75.70;;;;;;5074644;28;20036;-76
2022/06/03 04:16:11;;;;;;;1.77;1.10;;;15.90;75.90;;;;;;5053407;28;20499;-76
2022/06/03 04:18:45;;;;;;;4.28;2.30;;;15.90;75.90;;;;;;5074524;28;20031;-76
2022/06/03 04:21:16;;;;;;;3.35;2.10;;;16.00;75.80;;;;;;5073932;28;20095;-75
2022/06/03 04:24:39;;;;;;;2.35;1.60;;;16.00;75.80;;;;;;5074163;28;20025;-76
2022/06/03 04:27:42;;;;;;;2.88;1.80;;;16.10;75.80;;;;;;5032087;28;20036;-76
2022/06/03 04:30:27;;;;;;;5.00;1.88;;;16.20;75.70;;;;;;5032106;28;20025;-76
2022/06/03 04:33:15;;;;;;;4.05;1.77;;;16.20;75.40;;;;;;5072171;28;20090;-75
2022/06/03 04:36:10;;;;;;;3.75;2.70;;;16.20;75.20;;;;;;5074268;28;20020;-75
2022/06/03 04:39:14;;;;;;;2.38;1.83;;;16.10;75.50;;;;;;5074146;28;20029;-76
2022/06/03 04:42:17;;;;;;;3.25;2.10;;;16.10;76.00;;;;;;5073759;28;20043;-76
2022/06/03 04:45:11;;;;;;;2.63;2.05;;;16.10;75.90;;;;;;5073900;28;20090;-76
2022/06/03 04:47:57;;;;;;;;;;;16.10;76.20;;;;;;5073890;28;20054;-76
2022/06/03 04:50:29;;;;;;;3.58;1.90;;;16.10;76.40;;;;;;5073632;28;20458;-76
2022/06/03 04:53:00;;;;;;;4.37;2.20;;;16.10;76.10;;;;;;5073551;28;20086;-76
2022/06/03 04:55:48;;;;;;;3.13;2.15;;;16.10;76.20;;;;;;5073454;28;20024;-76
2022/06/03 04:58:49;;;;;;;2.47;1.90;;;16.10;76.30;;;;;;5073464;28;20400;-76
2022/06/03 05:01:56;;;;;;;3.58;2.20;;;16.10;76.40;;;;;;5011540;28;20029;-76
2022/06/03 05:04:37;;;;;;;2.92;1.88;;;16.10;76.40;;;;;;5027526;22;20057;-76
2022/06/03 05:07:21;;;;;;;4.50;2.35;;;16.00;76.10;;;;;;5033341;28;20064;-76
2022/06/03 05:10:24;;;;;;;3.72;2.58;;;15.90;76.50;;;;;;5033584;28;20092;-76
2022/06/03 05:13:19;;;;;;;4.25;2.13;;;15.80;77.00;;;;;;5033611;28;20041;-76
2022/06/03 05:15:48;;;;;;;3.35;2.38;;;15.80;77.30;;;;;;5033539;28;20026;-76
2022/06/03 05:18:44;;;;;;;2.47;2.10;;;15.90;77.40;;;;;;5033221;28;20025;-76
2022/06/03 05:21:16;;;;;;;3.20;2.72;;;15.90;77.50;;;;;;5033206;28;20169;-76
2022/06/03 05:24:13;;;;;;;3.58;2.28;;;15.90;77.30;;;;;;5033555;28;20029;-76
2022/06/03 05:27:08;;;;;;;3.15;2.47;;;15.90;77.30;;;;;;4979621;28;20105;-76
2022/06/03 05:30:02;;;;;;;4.10;2.30;;;15.90;76.90;;;;;;5033415;28;20032;-77
2022/06/03 05:32:56;;;;;;;4.22;2.95;;;15.80;77.20;;;;;;5033172;28;20087;-76
2022/06/03 05:35:36;;;;;;;4.95;2.40;;;15.80;77.30;;;;;;5033054;28;20018;-76
2022/06/03 05:38:19;;;;;;;5.25;2.53;;;15.70;77.40;;;;;;5033186;28;20035;-76
2022/06/03 05:40:56;;;;;;;3.63;2.20;;;15.80;77.50;;;;;;5033080;28;20025;-76
2022/06/03 05:43:49;;;;;;;3.30;2.40;;;15.90;77.50;;;;;;5033320;28;20025;-76
2022/06/03 05:46:20;;;;;;;3.20;2.67;;;16.00;77.20;;;;;;5032995;28;20028;-76
2022/06/03 05:49:08;;;;;;;4.70;3.00;;;16.00;76.90;;;;;;5032899;28;20037;-76
2022/06/03 05:51:48;;;;;;;4.72;2.45;;;16.00;76.70;;;;;;5032763;28;20080;-76
2022/06/03 05:54:42;;;;;;;4.25;2.88;;;16.00;77.00;;;;;;5032864;28;20029;-76
2022/06/03 05:57:37;;;;;;;3.75;3.10;;;16.00;77.10;;;;;;5033020;28;20026;-77
2022/06/03 06:00:20;;;;;;;4.43;3.00;;;16.00;77.10;;;;;;5032924;28;20036;-76
2022/06/03 06:03:04;;;;;;;5.22;3.00;;;15.90;77.40;;;;;;5032798;28;20513;-76
2022/06/03 06:05:30;;;;;;;4.35;2.00;;;15.90;77.50;;;;;;5032463;28;20053;-76
2022/06/03 06:08:14;;;;;;;4.95;2.90;;;16.00;77.30;;;;;;5034547;28;20076;-76
2022/06/03 06:11:04;;;;;;;4.50;2.40;;;16.10;77.50;;;;;;5036521;28;20449;-76
2022/06/03 06:13:35;;;;;;;3.53;2.47;;;16.30;77.00;;;;;;5036642;28;20503;-76
2022/06/03 06:16:21;;;;;;;3.75;2.70;;;16.30;77.30;;;;;;5036295;28;20393;-76
2022/06/03 06:19:10;;;;;;;4.05;2.70;;;16.40;76.90;;;;;;5036681;28;20555;-76
2022/06/03 06:22:12;;;;;;;6.15;2.50;;;16.40;76.50;;;;;;5036289;28;20036;-76
2022/06/03 06:24:50;;;;;;;6.97;2.97;;;16.40;76.00;;;;;;5036357;28;20022;-76
2022/06/03 06:27:54;;;;;;;4.90;2.97;;;16.50;76.10;;;;;;5036718;28;20029;-76
2022/06/03 06:30:49;;;;;;;5.60;2.40;;;16.70;75.90;;;;;;5036503;28;20101;-77
2022/06/03 06:33:29;;;;;;;4.32;2.60;;;16.90;75.60;;;;;;5036209;28;20061;-76
2022/06/03 06:36:18;;;;;;;5.55;3.17;;;17.00;75.10;;;;;;5036295;28;20059;-76
2022/06/03 06:38:53;;;;;;;2.83;2.50;;;17.20;75.30;;;;;;5036266;28;20033;-76
2022/06/03 06:41:49;;;;;;;3.80;2.50;;;17.20;75.00;;;;;;5035883;28;20064;-77
2022/06/03 06:44:54;;;;;;;3.35;2.63;;;17.40;75.60;;;;;;5022917;28;20026;-76
2022/06/03 06:47:29;;;;;;;4.53;2.60;;;17.50;74.70;;;;;;5035585;28;20031;-76
2022/06/03 06:49:55;;;;;;;3.35;2.30;;;17.50;74.90;;;;;;5036173;28;20022;-76
2022/06/03 06:52:42;;;;;;;5.93;3.03;;;17.60;74.30;;;;;;5035981;28;20068;-77
2022/06/03 06:55:22;;;;;;;4.75;2.88;;;17.60;74.70;;;;;;5035568;28;20026;-77
2022/06/03 06:57:52;;;;;;;5.38;2.50;;;17.70;73.80;;;;;;5035845;28;20021;-77
2022/06/03 07:00:25;;;;;;;5.20;2.80;;;17.60;74.40;;;;;;5035856;28;20074;-77
2022/06/03 07:02:51;;;;;;;;;;;17.60;75.70;;;;;;5036069;28;20021;-77
2022/06/03 07:05:31;;;;;;;4.88;2.20;;;17.70;76.50;;;;;;5035440;28;19921;-77
2022/06/03 07:08:03;;;;;;;6.57;2.60;;;17.80;75.40;;;;;;5035904;28;20027;-75
2022/06/03 07:10:53;;;;;;;4.13;2.25;;;17.90;74.70;;;;;;5035972;28;20021;-75
2022/06/03 07:13:32;;;;;;;5.03;2.22;;;18.10;73.90;;;;;;5035553;28;20029;-76
2022/06/03 07:16:07;;;;;;;3.38;2.15;;;18.10;74.50;;;;;;5035976;28;20084;-75
2022/06/03 07:21:58;;;;;;;2.88;2.10;;;18.30;73.50;;;;;;5035776;28;20068;-75
2022/06/03 07:24:42;;;;;;;3.15;1.85;;;18.40;73.50;;;;;;5035789;28;20527;-75
2022/06/03 07:27:31;;;;;;;3.10;2.53;;;18.50;73.40;;;;;;5035559;28;20125;-75
2022/06/03 07:30:07;;;;;;;3.00;1.95;;;18.60;72.60;;;;;;5035288;28;20025;-76
2022/06/03 07:32:45;;;;;;;3.15;2.00;;;18.80;72.50;;;;;;5035106;28;20037;-76
2022/06/03 07:35:26;;;;;;;2.95;2.03;;;19.00;72.20;;;;;;5035146;28;20022;-76
2022/06/03 07:38:23;;;;;;;5.53;2.17;;;19.10;71.70;;;;;;5035437;28;20025;-75
2022/06/03 07:41:05;;;;;;;2.08;1.77;;;19.20;71.80;;;;;;5010945;28;20069;-76
2022/06/03 07:43:52;;;;;;;2.63;2.08;;;19.20;72.00;;;;;;5035119;28;20017;-76
2022/06/03 07:46:43;;;;;;;4.55;2.47;;;19.40;71.30;;;;;;5034873;28;20021;-76
2022/06/03 07:49:10;;;;;;;5.32;2.30;;;19.40;70.80;;;;;;5034128;28;20409;-77
2022/06/03 07:51:42;;;;;;;3.63;1.63;;;19.50;72.10;;;;;;5034626;28;20041;-76
2022/06/03 07:54:26;;;;;;;3.20;2.05;;;19.60;72.00;;;;;;5034941;28;20079;-76
2022/06/03 07:57:00;;;;;;;2.67;1.88;;;19.70;71.00;;;;;;5034864;28;20116;-76
2022/06/03 07:59:30;;;;;;;3.78;1.98;;;19.60;71.80;;;;;;5034417;28;20022;-77
2022/06/03 08:02:00;;;;;;;3.30;1.60;;;19.70;71.60;;;;;;5034968;28;20036;-76
2022/06/03 08:04:32;;;;;;;4.35;1.85;;;19.80;70.80;;;;;;5034353;28;20052;-77
2022/06/03 08:12:31;;;;;;;2.80;1.77;;;20.40;70.50;;;;;;5034636;28;20397;-77
2022/06/03 08:14:57;;;;;;;3.60;1.13;;;20.60;68.90;;;;;;5034353;28;20540;-76
2022/06/03 08:17:26;;;;;;;2.17;1.50;;;20.60;67.60;;;;;;5034601;28;20033;-77
2022/06/03 08:19:54;;;;;;;1.85;1.30;;;20.70;68.90;;;;;;5034275;28;20021;-77
2022/06/03 08:22:24;;;;;;;1.48;1.20;;;20.80;69.10;;;;;;5034251;28;20104;-77
2022/06/03 08:24:57;;;;;;;2.20;1.45;;;20.90;68.40;;;;;;5034426;28;20018;-76
2022/06/03 08:27:26;;;;;;;2.25;1.38;;;21.00;67.50;;;;;;5034180;28;20362;-78
2022/06/03 08:29:59;;;;;;;2.25;1.00;;;21.10;68.20;;;;;;5033978;28;20029;-77
2022/06/03 08:32:35;;;;;;;2.83;1.10;;;21.20;67.60;;;;;;5033781;28;20108;-77
2022/06/03 08:35:07;;;;;;;2.22;0.98;;;21.20;66.50;;;;;;5034014;28;20022;-77
2022/06/03 08:37:41;;;;;;;6.47;1.52;;;21.20;66.70;;;;;;5033829;28;20121;-77
2022/06/03 08:40:20;;;;;;;4.43;1.25;;;21.30;68.90;;;;;;5034001;28;20025;-77
2022/06/03 08:42:59;;;;;;;3.40;1.30;;;21.50;66.40;;;;;;5034036;28;20018;-77
2022/06/03 08:45:40;;;;;;;3.72;0.90;;;21.70;66.60;;;;;;5033912;28;20021;-77
2022/06/03 08:48:14;;;;;;;3.53;1.10;;;21.90;65.00;;;;;;5033656;28;20033;-77
2022/06/03 08:51:02;;;;;;;1.27;0.95;;;22.00;64.40;;;;;;5033092;28;20500;-77
2022/06/03 08:53:41;;;;;;;4.25;1.27;;;22.00;63.70;;;;;;5033369;28;20028;-77
2022/06/03 08:56:11;;;;;;;3.50;1.10;;;22.10;64.40;;;;;;5033601;28;20033;-77
2022/06/03 08:58:44;;;;;;;1.63;1.00;;;22.20;65.10;;;;;;5033824;28;20104;-77
2022/06/03 09:01:18;;;;;;;2.65;0.80;;;22.40;64.40;;;;;;5033769;28;20029;-77
2022/06/03 09:04:12;;;;;;;4.10;0.70;;;22.50;64.00;;;;;;5033084;28;20079;-77
2022/06/03 09:06:51;;;;;;;4.82;0.80;;;22.50;62.90;;;;;;5033364;28;20105;-77
2022/06/03 09:09:40;;;;;;;1.58;0.70;;;22.50;61.90;;;;;;5033539;28;20461;-77
2022/06/03 09:12:32;;;;;;;1.10;0.60;;;22.50;61.80;;;;;;5025261;28;20091;-77
2022/06/03 09:15:08;;;;;;;3.00;0.60;;;22.60;60.70;;;;;;5010474;28;20030;-77
2022/06/03 09:17:56;;;;;;;2.88;0.73;;;22.70;60.10;;;;;;5032925;28;20431;-77
2022/06/03 09:20:39;;;;;;;2.90;0.77;;;22.70;60.20;;;;;;5033492;28;20021;-77
2022/06/03 09:23:08;;;;;;;2.58;0.38;;;22.80;59.90;;;;;;5033406;28;20056;-77
2022/06/03 09:25:38;;;;;;;1.75;0.60;;;22.90;58.30;;;;;;5033203;28;20385;-78
2022/06/03 09:28:07;;;;;;;3.20;0.65;;;23.00;57.40;;;;;;5033048;28;20373;-78
2022/06/03 09:30:38;;;;;;;1.85;0.68;;;23.20;55.90;;;;;;5033319;28;20090;-77
2022/06/03 09:33:06;;;;;;;3.13;0.43;;;23.20;56.80;;;;;;5033226;28;20431;-77
2022/06/03 09:35:36;;;;;;;4.25;0.75;;;23.30;55.40;;;;;;5033275;28;20095;-77
2022/06/03 09:38:04;;;;;;;1.45;0.68;;;23.40;56.60;;;;;;5033483;28;20164;-77
2022/06/03 09:40:36;;;;;;;1.63;0.57;;;23.40;57.10;;;;;;5033054;28;20028;-77
2022/06/03 09:43:08;;;;;;;1.38;0.60;;;23.40;57.10;;;;;;5035452;28;20021;-78
2022/06/03 09:45:35;;;;;;;;;;;23.40;56.20;;;;;;5037665;28;20053;-77
2022/06/03 09:48:04;;;;;;;1.98;0.80;;;23.50;56.90;;;;;;5037103;28;20410;-77
2022/06/03 09:50:31;;;;;;;2.13;1.02;;;23.70;57.30;;;;;;5036700;28;20036;-78
2022/06/03 09:53:09;;;;;;;6.07;0.80;;;23.80;57.20;;;;;;5037281;28;20033;-77
2022/06/03 09:55:40;;;;;;;1.48;0.80;;;23.80;58.10;;;;;;5037002;28;20018;-77
2022/06/03 09:58:11;;;;;;;4.65;1.30;;;24.00;58.30;;;;;;5037217;28;20034;-77
2022/06/03 10:00:51;;;;;;;1.33;0.73;;;24.10;57.10;;;;;;5037275;28;20070;-77
2022/06/03 10:03:18;;;;;;;1.27;0.50;;;24.20;56.50;;;;;;5036661;28;20072;-77
2022/06/03 10:05:50;;;;;;;3.58;0.50;;;24.30;56.00;;;;;;5036611;28;20107;-78
2022/06/03 10:08:21;;;;;;;;;;;24.30;53.40;;;;;;5037440;28;20040;-77
2022/06/03 10:13:37;;;;;;;1.42;0.30;;;24.30;52.80;;;;;;5037264;28;20074;-77
2022/06/03 10:16:05;;;;;;;2.38;0.60;;;24.40;52.20;;;;;;5036771;28;20026;-78
2022/06/03 10:18:34;;;;;;;3.50;1.00;;;24.60;53.20;;;;;;5036944;28;20113;-77
2022/06/03 10:21:08;;;;;;;1.42;0.75;;;24.60;53.30;;;;;;5036840;28;20421;-77
2022/06/03 10:23:43;;;;;;;1.95;0.85;;;24.70;52.80;;;;;;5036941;28;20042;-77
2022/06/03 10:26:17;;;;;;;1.25;0.77;;;24.70;52.80;;;;;;5036753;28;20426;-77
2022/06/03 10:28:43;;;;;;;1.70;0.68;;;24.60;52.60;;;;;;5037064;28;20025;-78
2022/06/03 10:31:17;;;;;;;3.15;0.98;;;24.70;53.00;;;;;;5036142;28;20095;-78
2022/06/03 10:34:00;;;;;;;1.13;0.60;;;24.70;53.70;;;;;;5036395;28;20040;-77
2022/06/03 10:36:54;;;;;;;2.83;0.80;;;24.90;50.90;;;;;;5036054;28;20021;-77
2022/06/03 10:39:23;;;;;;;1.52;0.70;;;24.90;50.70;;;;;;5034056;28;20045;-78
2022/06/03 10:41:51;;;;;;;0.80;0.57;;;25.00;49.70;;;;;;5035952;28;20028;-77
2022/06/03 10:44:18;;;;;;;3.30;0.60;;;25.10;49.70;;;;;;5036218;28;20028;-78
2022/06/03 10:47:05;;;;;;;1.52;0.35;;;25.20;51.30;;;;;;5036047;28;20026;-77
2022/06/03 10:49:35;;;;;;;2.17;0.60;;;25.40;50.90;;;;;;5035733;28;20029;-78
2022/06/03 11:03:32;;;;;;;3.67;0.70;;;25.40;50.30;;;;;;5035878;28;20512;-77
2022/06/03 11:06:07;;;;;;;1.85;0.75;;;25.60;51.00;;;;;;5035515;28;20041;-77
2022/06/03 11:08:59;;;;;;;2.03;0.65;;;25.80;50.80;;;;;;5035787;28;20486;-77
2022/06/03 11:11:53;;;;;;;1.23;0.50;;;25.80;49.00;;;;;;5035867;28;20034;-77
2022/06/03 11:14:24;;;;;;;2.95;0.70;;;25.90;48.80;;;;;;5035426;28;20437;-77
2022/06/03 11:17:02;;;;;;;1.52;0.60;;;25.90;49.40;;;;;;5035812;28;20029;-77
2022/06/03 11:19:35;;;;;;;1.27;0.60;;;26.10;49.30;;;;;;5035478;28;20080;-77
2022/06/03 11:22:24;;;;;;;2.22;0.50;;;26.20;49.90;;;;;;5035367;28;20481;-77
2022/06/03 11:25:22;;;;;;;2.20;0.63;;;26.20;47.10;;;;;;5035392;28;20036;-77
2022/06/03 11:28:09;;;;;;;3.20;0.70;;;26.20;46.80;;;;;;5035099;28;20477;-77
2022/06/03 11:30:49;;;;;;;2.13;0.60;;;26.20;47.40;;;;;;5035188;28;20465;-77
2022/06/03 11:33:50;;;;;;;1.52;0.60;;;26.30;47.90;;;;;;5035415;28;20116;-77
2022/06/03 11:36:36;;;;;;;1.10;0.40;;;26.40;48.20;;;;;;4973774;28;20109;-77
2022/06/03 11:39:22;;;;;;;1.40;0.47;;;26.50;46.70;;;;;;5031274;28;20049;-77
2022/06/03 11:41:55;;;;;;;1.00;0.32;;;26.50;45.80;;;;;;5035072;28;20105;-77
2022/06/03 11:44:31;;;;;;;3.42;0.63;;;26.40;46.20;;;;;;5035485;28;20051;-77
2022/06/03 11:47:33;;;;;;;2.17;0.40;;;26.40;46.10;;;;;;5035038;28;20030;-77
2022/06/03 11:49:59;;;;;;;3.10;0.43;;;26.50;47.20;;;;;;5035187;28;20030;-77
2022/06/03 11:52:25;;;;;;;1.80;0.40;;;26.70;47.60;;;;;;5034695;28;20045;-77
2022/06/03 11:54:52;;;;;;;1.00;0.30;;;26.70;46.10;;;;;;5034982;28;20057;-77
2022/06/03 11:57:18;;;;;;;3.13;0.45;;;26.60;45.80;;;;;;5034501;28;20470;-77
2022/06/03 11:59:54;;;;;;;1.02;0.57;;;26.70;45.20;;;;;;5033742;28;20092;-77
2022/06/03 12:02:29;;;;;;;1.67;0.40;;;26.70;45.20;;;;;;5033930;28;20533;-78
2022/06/03 12:05:16;;;;;;;1.02;0.50;;;26.70;45.10;;;;;;5033237;28;20057;-78
2022/06/03 12:07:54;;;;;;;2.25;0.68;;;26.70;45.80;;;;;;5034055;28;20432;-78
2022/06/03 12:10:26;;;;;;;1.73;0.60;;;26.80;45.90;;;;;;5034715;28;20026;-78
2022/06/03 12:13:16;;;;;;;1.20;0.40;;;26.90;45.20;;;;;;5034561;28;20034;-78
2022/06/03 12:15:54;;;;;;;5.65;0.50;;;26.70;45.80;;;;;;5034554;28;20068;-77
2022/06/03 12:18:32;;;;;;;1.73;0.47;;;26.80;46.00;;;;;;5034217;28;20491;-78
2022/06/03 12:21:30;;;;;;;1.75;0.50;;;26.70;45.70;;;;;;5034219;28;20106;-78
2022/06/03 12:23:57;;;;;;;1.88;0.68;;;26.70;45.40;;;;;;5008972;28;20029;-78
2022/06/03 12:26:31;;;;;;;1.48;0.50;;;26.70;44.70;;;;;;5034433;28;20033;-78
2022/06/03 12:29:25;;;;;;;2.20;0.52;;;26.70;45.50;;;;;;5033942;28;20021;-77
2022/06/03 12:31:51;;;;;;;0.95;0.45;;;26.60;46.00;;;;;;5033751;28;20513;-78
2022/06/03 12:34:24;;;;;;;2.55;0.50;;;26.70;46.30;;;;;;5033938;28;20021;-77
2022/06/03 12:36:56;;;;;;;2.65;0.57;;;26.70;45.80;;;;;;5034021;28;20033;-77
2022/06/03 12:39:53;;;;;;;1.45;0.50;;;26.60;45.70;;;;;;5033853;28;20026;-77
2022/06/03 12:42:27;;;;;;;4.43;0.60;;;26.60;46.00;;;;;;5020515;28;20481;-77
2022/06/03 12:44:56;;;;;;;2.53;0.55;;;26.70;46.70;;;;;;5034036;28;20040;-77
2022/06/03 12:47:34;;;;;;;2.22;0.60;;;26.80;45.20;;;;;;5034091;28;20018;-77
2022/06/03 12:50:23;;;;;;;2.67;0.55;;;26.80;45.40;;;;;;5033903;28;20120;-77
2022/06/03 12:52:57;;;;;;;1.45;0.60;;;26.80;45.40;;;;;;5033346;28;20095;-77
2022/06/03 12:55:36;;;;;;;1.40;0.60;;;26.70;45.20;;;;;;5033528;28;20519;-77
2022/06/03 12:58:03;;;;;;;1.75;0.60;;;26.50;44.70;;;;;;5033592;28;20025;-77
2022/06/03 13:00:32;;;;;;;1.25;0.60;;;26.50;45.50;;;;;;5032877;28;20021;-77
2022/06/03 13:03:13;;;;;;;0.85;0.40;;;26.50;46.00;;;;;;5033339;28;20029;-77
2022/06/03 13:05:47;;;;;;;2.38;0.50;;;26.60;45.90;;;;;;5033445;28;20045;-77
2022/06/03 13:08:32;;;;;;;2.15;0.60;;;26.60;45.80;;;;;;5033205;28;20057;-77
2022/06/03 13:11:06;;;;;;;1.48;0.40;;;26.70;45.70;;;;;;5032423;28;20021;-78
2022/06/03 13:13:35;;;;;;;1.13;0.50;;;26.80;45.80;;;;;;5033034;28;20029;-77
2022/06/03 13:16:28;;;;;;;0.70;0.47;;;26.90;45.50;;;;;;5033336;28;20018;-78
2022/06/03 13:18:56;;;;;;;3.60;0.50;;;26.90;45.20;;;;;;5032639;28;20025;-78
2022/06/03 13:21:23;;;;;;;1.83;0.30;;;27.00;44.60;;;;;;5032771;28;20106;-78
2022/06/03 13:23:59;;;;;;;1.40;0.40;;;27.10;44.70;;;;;;5032785;28;20026;-78
2022/06/03 13:26:26;;;;;;;1.67;0.43;;;27.10;43.20;;;;;;5032848;28;20029;-78
2022/06/03 13:29:01;;;;;;;1.33;0.40;;;27.10;43.30;;;;;;5033099;28;20022;-78
2022/06/03 13:31:41;;;;;;;2.60;1.00;;;27.20;43.80;;;;;;5032710;28;20504;-78
2022/06/03 13:34:08;;;;;;;1.73;0.73;;;27.10;43.90;;;;;;5032733;28;20017;-78
2022/06/03 13:36:45;;;;;;;4.00;0.70;;;27.10;44.70;;;;;;5033278;28;20041;-78
2022/06/03 13:39:28;;;;;;;1.33;0.60;;;27.00;43.90;;;;;;5032933;28;20025;-78
2022/06/03 13:45:01;;;;;;;1.15;0.40;;;27.00;45.50;;;;;;5033096;28;20488;-78
2022/06/03 13:47:32;;;;;;;4.63;0.40;;;27.10;45.20;;;;;;5021781;28;20044;-77
2022/06/03 13:50:14;;;;;;;2.47;0.50;;;27.30;44.50;;;;;;5033260;28;20386;-78
2022/06/03 13:52:45;;;;;;;6.15;0.60;;;27.30;44.10;;;;;;5032765;28;20088;-77
2022/06/03 13:55:42;;;;;;;1.67;0.30;;;27.20;43.80;;;;;;5032757;28;20477;-78
2022/06/03 13:58:11;;;;;;;2.75;0.80;;;27.10;44.10;;;;;;5033030;28;20299;-77
2022/06/03 14:00:59;;;;;;;2.65;0.50;;;27.20;44.60;;;;;;5032389;28;20028;-77
2022/06/03 14:03:31;;;;;;;3.15;0.70;;;27.20;44.30;;;;;;5031884;28;20552;-77
2022/06/03 14:06:01;;;;;;;0.93;0.30;;;27.20;44.40;;;;;;5032964;28;20139;-78
2022/06/03 14:08:46;;;;;;;2.47;0.40;;;27.10;45.10;;;;;;5032769;28;20029;-78
2022/06/03 14:11:29;;;;;;;1.73;0.65;;;27.10;45.40;;;;;;5032484;28;20064;-77
2022/06/03 14:14:06;;;;;;;1.42;0.50;;;26.90;45.40;;;;;;5033055;28;20112;-79
2022/06/03 14:16:44;;;;;;;1.38;0.40;;;26.70;45.70;;;;;;5032983;28;20026;-78
2022/06/03 14:19:10;;;;;;;3.22;0.60;;;26.60;45.70;;;;;;5032628;28;20075;-78
2022/06/03 14:21:43;;;;;;;0.75;0.30;;;26.50;45.30;;;;;;5032378;28;20385;-78
2022/06/03 14:24:35;;;;;;;5.25;0.60;;;26.60;45.60;;;;;;5032888;28;20075;-78